Time;durP1;ratioP1;P1;durP2;ratioP2;P2;SDS_P1;SDS_P2;PMS_P1;PMS_P2;Temp;Humidity;BMP_temperature;BMP_pressure;BME280_temperature;BME280_humidity;BME280_pressure;Samples;Min_cycle;Max_cycle;Signal;HPM_P1;HPM_P2
2023/04/16 00:00:14;;;;;;;6.60;5.30;;;;;;;9.06;100.00;100497.01;105572;1253;101366;-78
2023/04/16 00:03:20;;;;;;;5.70;5.00;;;;;;;9.05;100.00;100501.22;105541;1253;102110;-77
2023/04/16 00:06:06;;;;;;;6.70;5.30;;;;;;;9.03;100.00;100497.58;105616;1253;97715;-78
2023/04/16 00:08:51;;;;;;;7.00;5.80;;;;;;;9.03;100.00;100500.08;105948;1259;96617;-75
2023/04/16 00:11:37;;;;;;;6.60;5.80;;;;;;;9.01;100.00;100504.92;105526;1254;97186;-75
2023/04/16 00:14:22;;;;;;;10.70;5.60;;;;;;;9.01;100.00;100504.79;105445;1254;101256;-76
2023/04/16 00:17:10;;;;;;;7.00;6.30;;;;;;;9.03;100.00;100505.41;105569;1254;100345;-77
2023/04/16 00:19:55;;;;;;;8.20;6.40;;;;;;;9.03;100.00;100505.20;105551;1256;98962;-77
2023/04/16 00:22:41;;;;;;;6.90;6.20;;;;;;;9.03;100.00;100506.88;105461;1254;96521;-76
2023/04/16 00:25:27;;;;;;;8.20;6.70;;;;;;;9.03;100.00;100505.64;105564;1256;97131;-80
2023/04/16 00:28:12;;;;;;;7.40;5.90;;;;;;;9.02;100.00;100502.48;105653;1257;100000;-77
2023/04/16 00:30:59;;;;;;;7.30;6.10;;;;;;;9.02;100.00;100501.64;105755;1259;99093;-78
2023/04/16 00:33:45;;;;;;;6.70;6.00;;;;;;;9.02;100.00;100502.21;105688;1257;98517;-77
2023/04/16 00:36:30;;;;;;;9.10;6.20;;;;;;;9.01;100.00;100507.92;105462;1259;96600;-76
2023/04/16 00:39:16;;;;;;;9.60;7.20;;;;;;;9.00;100.00;100509.88;105512;1257;97023;-77
2023/04/16 00:42:01;;;;;;;9.10;7.10;;;;;;;8.99;100.00;100507.72;105490;1254;100031;-76
2023/04/16 00:44:47;;;;;;;9.80;6.60;;;;;;;8.99;100.00;100512.52;105628;1256;100159;-76
2023/04/16 00:47:32;;;;;;;7.70;6.80;;;;;;;9.00;100.00;100512.73;105741;1257;97660;-77
2023/04/16 00:50:18;;;;;;;8.50;6.70;;;;;;;9.01;100.00;100513.98;105554;1257;96706;-75
2023/04/16 00:53:04;;;;;;;7.50;6.80;;;;;;;9.04;100.00;100515.66;105534;1254;96618;-74
2023/04/16 00:55:49;;;;;;;6.60;5.90;;;;;;;9.04;100.00;100518.66;105514;1254;101224;-78
2023/04/16 00:58:35;;;;;;;10.00;6.10;;;;;;;9.01;100.00;100517.94;105566;1253;99916;-75
2023/04/16 01:01:20;;;;;;;9.20;7.30;;;;;;;9.00;100.00;100514.14;105505;1259;98960;-76
2023/04/16 01:04:06;;;;;;;13.50;7.00;;;;;;;8.99;100.00;100514.05;105579;1254;96598;-76
2023/04/16 01:06:51;;;;;;;8.20;6.50;;;;;;;8.99;100.00;100516.25;105530;1253;96591;-76
2023/04/16 01:09:37;;;;;;;9.70;6.60;;;;;;;8.98;100.00;100518.66;106188;1254;101180;-76
2023/04/16 01:12:22;;;;;;;7.50;6.40;;;;;;;8.97;100.00;100519.71;105700;1257;100749;-76
2023/04/16 01:15:10;;;;;;;8.80;6.40;;;;;;;8.97;100.00;100523.92;105683;1253;98560;-75
2023/04/16 01:17:55;;;;;;;8.00;6.90;;;;;;;8.97;100.00;100518.45;105542;1254;96600;-75
2023/04/16 01:20:40;;;;;;;9.00;6.90;;;;;;;8.97;100.00;100515.38;105678;1260;96527;-78
2023/04/16 01:23:25;;;;;;;7.60;6.60;;;;;;;8.98;100.00;100517.60;105685;1253;101245;-76
2023/04/16 01:26:11;;;;;;;8.90;6.10;;;;;;;8.98;100.00;100520.40;105656;1257;100367;-77
2023/04/16 01:28:58;;;;;;;6.80;6.20;;;;;;;8.98;100.00;100518.48;105605;1259;97726;-78
2023/04/16 01:31:45;;;;;;;8.40;6.60;;;;;;;8.95;100.00;100519.73;105734;1253;96625;-77
2023/04/16 01:34:41;;;;;;;9.50;6.40;;;;;;;8.92;100.00;100513.88;105738;1257;97113;-77
2023/04/16 01:37:29;;;;;;;6.80;6.10;;;;;;;8.89;100.00;100515.59;105594;1259;100053;-76
2023/04/16 01:40:16;;;;;;;8.00;6.50;;;;;;;8.88;100.00;100514.66;105627;1253;100402;-75
2023/04/16 01:43:02;;;;;;;8.50;7.10;;;;;;;8.87;100.00;100515.84;105568;1259;98977;-76
2023/04/16 01:45:47;;;;;;;7.70;6.60;;;;;;;8.85;100.00;100519.14;105531;1259;96698;-76
2023/04/16 01:48:33;;;;;;;8.30;6.70;;;;;;;8.83;100.00;100518.23;105563;1254;96786;-76
2023/04/16 01:51:20;;;;;;;8.10;6.30;;;;;;;8.83;100.00;100515.56;105888;1254;101124;-77
2023/04/16 01:54:05;;;;;;;11.00;7.40;;;;;;;8.83;100.00;100519.04;105817;1254;100287;-76
2023/04/16 01:56:51;;;;;;;9.90;6.60;;;;;;;8.80;100.00;100516.45;105793;1257;98615;-75
2023/04/16 01:59:37;;;;;;;10.40;7.40;;;;;;;8.80;100.00;100518.84;105581;1253;96683;-77
2023/04/16 02:02:26;;;;;;;9.50;7.00;;;;;;;8.78;100.00;100520.69;105446;1258;97217;-77
2023/04/16 02:05:13;;;;;;;11.10;7.20;;;;;;;8.77;100.00;100525.73;105506;1254;99978;-76
2023/04/16 02:07:58;;;;;;;9.50;6.90;;;;;;;8.78;100.00;100531.20;105886;1256;100330;-77
2023/04/16 02:10:46;;;;;;;11.00;7.70;;;;;;;8.77;100.00;100535.52;105362;1259;99034;-77
2023/04/16 02:13:31;;;;;;;9.50;7.50;;;;;;;8.76;100.00;100531.42;106423;1256;96520;-77
2023/04/16 02:16:17;;;;;;;8.70;7.20;;;;;;;8.74;100.00;100532.15;105550;1253;97218;-77
2023/04/16 02:19:08;;;;;;;;;;;;;;;8.73;100.00;100538.84;105739;1254;99825;-79
2023/04/16 02:21:54;;;;;;;9.20;6.80;;;;;;;8.70;100.00;100538.83;105747;1254;100470;-76
2023/04/16 02:24:39;;;;;;;10.30;7.60;;;;;;;8.69;100.00;100540.56;105742;1259;98961;-77
2023/04/16 02:27:27;;;;;;;11.40;8.80;;;;;;;8.66;100.00;100542.92;105419;1259;97383;-75
2023/04/16 02:30:16;;;;;;;9.30;7.70;;;;;;;8.63;100.00;100545.54;105529;1259;97135;-76
2023/04/16 02:33:04;;;;;;;10.30;8.20;;;;;;;8.62;100.00;100547.33;105655;1253;101248;-76
2023/04/16 02:35:50;;;;;;;14.40;8.90;;;;;;;8.62;100.00;100545.15;105521;1257;100910;-78
2023/04/16 02:38:36;;;;;;;9.60;7.50;;;;;;;8.62;100.00;100545.69;105569;1254;97704;-77
2023/04/16 02:41:22;;;;;;;10.30;8.50;;;;;;;8.62;100.00;100548.89;105796;1258;96521;-77
2023/04/16 02:44:08;;;;;;;11.50;8.50;;;;;;;8.62;100.00;100550.61;105833;1256;96727;-77
2023/04/16 02:46:53;;;;;;;12.50;9.40;;;;;;;8.63;100.00;100551.95;105410;1254;101350;-76
2023/04/16 02:49:39;;;;;;;13.20;9.90;;;;;;;8.63;100.00;100551.48;105495;1259;100391;-77
2023/04/16 02:52:24;;;;;;;10.60;9.30;;;;;;;8.62;100.00;100556.90;105375;1270;98976;-75
2023/04/16 02:55:10;;;;;;;12.20;8.00;;;;;;;8.63;100.00;100560.56;105739;1254;96469;-76
2023/04/16 02:57:55;;;;;;;13.50;9.10;;;;;;;8.63;100.00;100563.77;105539;1257;97061;-78
2023/04/16 03:00:41;;;;;;;11.60;9.80;;;;;;;8.63;100.00;100571.00;105564;1254;100181;-76
2023/04/16 03:03:26;;;;;;;15.80;9.90;;;;;;;8.64;100.00;100576.40;105423;1253;100498;-76
2023/04/16 03:06:12;;;;;;;12.90;10.10;;;;;;;8.66;100.00;100579.60;105636;1253;97759;-76
2023/04/16 03:08:57;;;;;;;11.00;9.30;;;;;;;8.67;100.00;100581.96;105402;1254;97149;-75
2023/04/16 03:11:43;;;;;;;11.70;9.30;;;;;;;8.68;100.00;100588.84;105324;1256;97363;-75
2023/04/16 03:14:30;;;;;;;15.90;10.70;;;;;;;8.68;100.00;100589.11;105603;1254;100093;-76
2023/04/16 03:17:15;;;;;;;15.20;11.00;;;;;;;8.69;100.00;100589.16;105555;1253;99805;-76
2023/04/16 03:20:01;;;;;;;12.90;10.30;;;;;;;8.69;100.00;100591.58;105515;1259;97611;-76
2023/04/16 03:22:46;;;;;;;10.90;9.40;;;;;;;8.67;100.00;100591.75;105441;1253;96575;-78
2023/04/16 03:25:32;;;;;;;11.20;9.40;;;;;;;8.66;100.00;100591.85;105553;1259;97026;-77
2023/04/16 03:28:18;;;;;;;13.00;10.20;;;;;;;8.65;100.00;100597.49;105622;1258;99990;-77
2023/04/16 03:31:04;;;;;;;12.00;10.10;;;;;;;8.64;100.00;100598.80;105575;1253;99104;-77
2023/04/16 03:33:49;;;;;;;15.00;10.90;;;;;;;8.65;100.00;100599.40;105517;1260;98188;-77
2023/04/16 03:36:34;;;;;;;14.10;10.00;;;;;;;8.65;100.00;100600.17;105697;1259;96545;-76
2023/04/16 03:39:20;;;;;;;15.90;10.70;;;;;;;8.64;100.00;100600.43;105580;1259;96655;-77
2023/04/16 03:42:06;;;;;;;13.30;10.00;;;;;;;8.65;100.00;100601.73;105390;1259;101298;-78
2023/04/16 03:44:52;;;;;;;15.90;10.50;;;;;;;8.66;100.00;100600.69;105509;1253;100454;-77
2023/04/16 03:47:38;;;;;;;14.30;10.00;;;;;;;8.66;100.00;100601.45;105522;1259;99016;-76
2023/04/16 03:50:24;;;;;;;14.80;10.60;;;;;;;8.65;100.00;100600.17;105518;1258;96517;-76
2023/04/16 03:53:09;;;;;;;15.80;10.50;;;;;;;8.64;100.00;100602.20;105340;1256;97043;-82
2023/04/16 03:55:56;;;;;;;13.50;10.50;;;;;;;8.65;100.00;100599.39;106375;1253;99992;-81
2023/04/16 03:58:42;;;;;;;16.00;10.90;;;;;;;8.65;100.00;100603.13;106231;1253;99104;-84
2023/04/16 04:01:29;;;;;;;13.40;10.20;;;;;;;8.65;100.00;100602.17;106512;1253;99064;-84
2023/04/16 04:04:15;;;;;;;14.00;10.70;;;;;;;8.64;100.00;100601.88;106118;1259;96749;-84
2023/04/16 04:07:02;;;;;;;15.50;10.80;;;;;;;8.63;100.00;100603.45;106413;1258;97781;-87
2023/04/16 04:09:48;;;;;;;15.00;11.20;;;;;;;8.62;100.00;100603.39;106816;1259;99971;-89
2023/04/16 04:12:35;;;;;;;14.50;11.40;;;;;;;8.63;100.00;100604.08;106562;1254;99968;-82
2023/04/16 04:15:21;;;;;;;17.60;12.10;;;;;;;8.66;100.00;100610.20;106466;1259;98478;-82
2023/04/16 04:18:08;;;;;;;19.90;12.40;;;;;;;8.68;100.00;100618.14;106373;1259;96157;-79
2023/04/16 04:20:54;;;;;;;17.10;12.70;;;;;;;8.70;100.00;100616.87;106468;1259;95294;-84
2023/04/16 04:23:43;;;;;;;16.90;13.50;;;;;;;8.72;100.00;100619.96;106575;1254;100560;-84
2023/04/16 04:26:30;;;;;;;15.80;12.80;;;;;;;8.74;100.00;100621.21;106337;1254;99079;-82
2023/04/16 04:29:15;;;;;;;17.20;12.50;;;;;;;8.76;100.00;100622.38;106625;1254;98458;-84
2023/04/16 04:32:01;;;;;;;18.80;14.30;;;;;;;8.78;100.00;100623.94;106310;1254;96507;-81
2023/04/16 04:34:47;;;;;;;18.80;15.00;;;;;;;8.80;100.00;100629.20;106364;1254;97108;-81
2023/04/16 04:37:33;;;;;;;19.80;15.60;;;;;;;8.81;100.00;100630.58;106188;1259;101907;-80
2023/04/16 04:40:24;;;;;;;18.30;14.80;;;;;;;8.78;100.00;100630.88;106103;1254;100171;-82
2023/04/16 04:43:11;;;;;;;20.40;16.00;;;;;;;8.77;100.00;100630.05;106599;1253;97707;-82
2023/04/16 04:45:57;;;;;;;19.00;14.90;;;;;;;8.79;100.00;100630.77;106536;1253;96527;-82
2023/04/16 04:48:46;;;;;;;18.50;14.10;;;;;;;8.81;100.00;100630.33;106326;1259;98565;-83
2023/04/16 04:51:32;;;;;;;16.80;13.70;;;;;;;8.82;100.00;100629.86;106571;1254;100004;-82
2023/04/16 04:54:17;;;;;;;19.50;13.50;;;;;;;8.84;100.00;100630.55;106363;1254;100315;-82
2023/04/16 04:57:03;;;;;;;17.80;13.10;;;;;;;8.85;100.00;100633.25;106302;1258;97709;-82
2023/04/16 04:59:49;;;;;;;15.50;13.10;;;;;;;8.85;100.00;100635.72;106336;1259;96432;-82
2023/04/16 05:02:35;;;;;;;15.50;12.50;;;;;;;8.86;100.00;100633.88;106328;1259;96610;-81
2023/04/16 05:05:21;;;;;;;16.30;12.20;;;;;;;8.86;100.00;100639.52;106351;1254;100807;-83
2023/04/16 05:08:07;;;;;;;19.10;13.60;;;;;;;8.87;100.00;100644.96;106258;1256;99253;-81
2023/04/16 05:10:52;;;;;;;15.40;12.20;;;;;;;8.87;100.00;100651.34;106124;1262;97735;-81
2023/04/16 05:13:38;;;;;;;16.40;12.90;;;;;;;8.88;100.00;100654.27;106188;1258;98026;-82
2023/04/16 05:16:23;;;;;;;15.40;11.30;;;;;;;8.90;100.00;100658.86;106147;1256;96780;-81
2023/04/16 05:19:09;;;;;;;15.10;11.80;;;;;;;8.93;100.00;100658.73;106139;1259;99985;-85
2023/04/16 05:21:55;;;;;;;15.40;11.90;;;;;;;8.94;100.00;100661.02;106305;1261;99652;-81
2023/04/16 05:24:40;;;;;;;16.50;11.70;;;;;;;8.96;100.00;100660.69;106449;1258;97737;-84
2023/04/16 05:27:26;;;;;;;13.80;10.60;;;;;;;8.96;100.00;100667.46;106199;1259;96698;-83
2023/04/16 05:30:11;;;;;;;16.40;11.30;;;;;;;8.96;100.00;100668.11;106365;1253;98298;-79
2023/04/16 05:32:56;;;;;;;14.50;11.10;;;;;;;8.97;100.00;100674.73;106265;1255;99966;-80
2023/04/16 05:35:42;;;;;;;16.00;11.60;;;;;;;9.00;100.00;100677.82;106564;1259;107765;-81
2023/04/16 05:38:27;;;;;;;15.70;12.10;;;;;;;9.00;100.00;100679.02;106315;1262;98391;-82
2023/04/16 05:41:12;;;;;;;16.00;11.90;;;;;;;9.01;100.00;100679.45;106361;1253;96884;-81
2023/04/16 05:43:58;;;;;;;18.10;11.30;;;;;;;9.04;100.00;100681.06;106606;1253;96826;-82
2023/04/16 05:46:43;;;;;;;13.50;11.20;;;;;;;9.08;100.00;100681.35;106351;1260;99998;-81
2023/04/16 05:49:28;;;;;;;15.80;11.30;;;;;;;9.12;100.00;100687.14;106405;1258;99118;-81
2023/04/16 05:52:14;;;;;;;11.00;9.40;;;;;;;9.14;100.00;100686.73;106278;1259;98925;-81
2023/04/16 05:55:00;;;;;;;13.30;10.30;;;;;;;9.13;100.00;100687.10;106479;1253;97209;-81
2023/04/16 05:57:45;;;;;;;14.90;10.30;;;;;;;9.14;100.00;100692.73;106429;1259;96496;-81
2023/04/16 06:00:34;;;;;;;15.40;11.20;;;;;;;9.14;100.00;100695.95;106447;1254;100849;-81
2023/04/16 06:03:20;;;;;;;13.50;10.50;;;;;;;9.12;100.00;100699.73;106428;1259;100419;-81
2023/04/16 06:06:07;;;;;;;13.50;10.30;;;;;;;9.12;100.00;100701.52;106513;1259;97756;-81
2023/04/16 06:08:53;;;;;;;11.40;9.80;;;;;;;9.15;100.00;100705.38;106732;1253;96606;-83
2023/04/16 06:11:38;;;;;;;16.30;11.50;;;;;;;9.14;100.00;100707.70;106684;1254;97489;-81
2023/04/16 06:14:24;;;;;;;15.40;10.90;;;;;;;9.15;100.00;100707.06;106533;1254;100133;-80
2023/04/16 06:17:10;;;;;;;17.70;12.40;;;;;;;9.17;100.00;100709.66;106636;1257;100383;-80
2023/04/16 06:19:55;;;;;;;14.90;11.40;;;;;;;9.21;100.00;100712.59;106643;1254;97938;-81
2023/04/16 06:22:41;;;;;;;15.30;11.50;;;;;;;9.23;100.00;100716.52;106571;1257;96612;-81
2023/04/16 06:25:26;;;;;;;14.80;11.00;;;;;;;9.25;100.00;100720.14;106442;1259;97723;-81
2023/04/16 06:28:12;;;;;;;14.60;11.20;;;;;;;9.28;100.00;100725.49;106739;1254;100024;-81
2023/04/16 06:30:59;;;;;;;15.40;11.90;;;;;;;9.30;100.00;100723.45;106575;1257;100881;-81
2023/04/16 06:33:44;;;;;;;16.30;12.70;;;;;;;9.34;100.00;100728.58;106511;1254;97931;-80
2023/04/16 06:36:30;;;;;;;15.50;12.20;;;;;;;9.35;100.00;100724.56;106465;1254;97273;-83
2023/04/16 06:39:15;;;;;;;17.20;11.80;;;;;;;9.37;100.00;100724.48;106451;1259;97175;-81
2023/04/16 06:42:01;;;;;;;27.40;17.40;;;;;;;9.41;100.00;100725.14;106427;1254;101806;-85
2023/04/16 06:44:50;;;;;;;15.50;12.00;;;;;;;9.43;100.00;100724.02;106765;1254;99066;-91
2023/04/16 06:47:35;;;;;;;17.20;12.90;;;;;;;9.44;100.00;100727.48;106274;1262;97740;-80
2023/04/16 06:50:22;;;;;;;17.40;12.70;;;;;;;9.45;100.00;100726.42;106439;1257;96612;-78
2023/04/16 06:53:07;;;;;;;16.20;11.80;;;;;;;9.47;100.00;100726.45;105741;1257;97124;-77
2023/04/16 06:55:53;;;;;;;15.30;12.10;;;;;;;9.50;100.00;100726.27;105815;1257;99993;-77
2023/04/16 06:58:38;;;;;;;15.10;12.10;;;;;;;9.55;100.00;100728.09;106234;1259;100345;-79
2023/04/16 07:01:30;;;;;;;16.10;11.00;;;;;;;9.62;100.00;100724.56;106989;1254;97807;-90
2023/04/16 07:04:31;;;;;;;15.70;11.70;;;;;;;9.67;100.00;100722.89;106663;1262;96582;-86
2023/04/16 07:07:17;;;;;;;15.40;11.80;;;;;;;9.69;100.00;100719.44;106615;1254;97148;-81
2023/04/16 07:10:04;;;;;;;17.10;12.00;;;;;;;9.72;100.00;100721.46;106772;1260;101303;-83
2023/04/16 07:12:50;;;;;;;14.00;12.10;;;;;;;9.76;100.00;100721.54;106419;1253;100285;-82
2023/04/16 07:15:35;;;;;;;15.80;13.50;;;;;;;9.80;100.00;100725.11;106403;1259;98965;-78
2023/04/16 07:18:21;;;;;;;19.20;15.60;;;;;;;9.88;100.00;100732.23;105701;1254;97464;-75
2023/04/16 07:21:06;;;;;;;14.50;12.10;;;;;;;9.92;100.00;100735.13;105491;1259;97106;-76
2023/04/16 07:23:52;;;;;;;16.60;13.70;;;;;;;9.96;100.00;100738.98;105518;1260;101234;-77
2023/04/16 07:26:38;;;;;;;15.90;12.90;;;;;;;10.04;100.00;100742.98;106318;1257;155165;-81
2023/04/16 07:29:24;;;;;;;16.40;12.60;;;;;;;10.14;100.00;100744.30;105830;1259;97650;-80
2023/04/16 07:32:11;;;;;;;15.00;12.20;;;;;;;10.25;100.00;100745.17;106480;1259;96535;-80
2023/04/16 07:34:56;;;;;;;14.20;12.10;;;;;;;10.29;100.00;100753.27;106137;1259;97102;-83
2023/04/16 07:37:42;;;;;;;14.60;11.90;;;;;;;10.32;100.00;100752.25;105884;1260;99870;-80
2023/04/16 07:40:27;;;;;;;14.90;11.60;;;;;;;10.33;100.00;100753.70;105957;1254;100114;-78
2023/04/16 07:43:15;;;;;;;17.60;13.80;;;;;;;10.38;100.00;100753.50;105689;1260;98021;-77
2023/04/16 07:46:00;;;;;;;15.10;13.40;;;;;;;10.46;100.00;100755.64;105691;1259;97333;-77
2023/04/16 07:48:46;;;;;;;15.80;12.50;;;;;;;10.56;100.00;100756.19;105765;1259;96654;-78
2023/04/16 07:51:32;;;;;;;16.70;14.30;;;;;;;10.67;100.00;100755.61;105692;1260;100156;-78
2023/04/16 07:54:18;;;;;;;16.40;12.60;;;;;;;10.73;100.00;100757.55;105601;1256;99228;-78
2023/04/16 07:57:04;;;;;;;17.70;14.70;;;;;;;10.78;100.00;100751.33;105592;1260;97708;-77
2023/04/16 07:59:50;;;;;;;14.80;12.60;;;;;;;10.84;100.00;100750.54;105611;1260;96604;-77
2023/04/16 08:02:36;;;;;;;17.20;14.70;;;;;;;10.87;99.73;100754.83;105765;1254;98205;-79
2023/04/16 08:05:22;;;;;;;13.90;11.70;;;;;;;10.91;99.68;100756.52;105677;1260;100004;-77
2023/04/16 08:08:07;;;;;;;18.00;14.50;;;;;;;10.92;98.89;100763.64;105887;1260;99080;-79
2023/04/16 08:10:54;;;;;;;16.20;12.70;;;;;;;10.93;98.54;100769.34;105882;1259;97823;-78
2023/04/16 08:13:40;;;;;;;14.90;12.20;;;;;;;10.94;98.56;100774.18;105865;1255;96606;-79
2023/04/16 08:16:25;;;;;;;15.60;12.70;;;;;;;10.94;98.09;100779.83;105750;1259;96667;-79
2023/04/16 08:19:11;;;;;;;17.60;14.60;;;;;;;10.94;97.37;100784.23;105827;1260;101264;-78
2023/04/16 08:21:57;;;;;;;15.10;12.20;;;;;;;10.91;97.01;100791.99;105838;1257;100346;-78
2023/04/16 08:24:43;;;;;;;15.80;14.10;;;;;;;10.90;96.99;100801.73;105788;1257;99281;-77
2023/04/16 08:27:29;;;;;;;14.60;12.40;;;;;;;10.91;96.79;100808.30;105636;1260;96511;-76
2023/04/16 08:30:15;;;;;;;13.30;11.10;;;;;;;10.92;96.48;100805.64;105752;1258;96198;-78
2023/04/16 08:33:01;;;;;;;14.00;12.10;;;;;;;10.92;96.48;100809.41;105908;1257;101260;-79
2023/04/16 08:35:46;;;;;;;16.50;12.50;;;;;;;10.93;96.68;100808.05;105758;1255;99898;-78
2023/04/16 08:38:32;;;;;;;13.30;11.90;;;;;;;10.94;96.34;100810.99;106049;1254;97688;-78
2023/04/16 08:41:20;;;;;;;12.20;10.80;;;;;;;10.95;95.94;100810.97;106103;1260;97137;-79
2023/04/16 08:44:08;;;;;;;12.40;10.90;;;;;;;10.95;95.46;100815.45;106093;1262;96600;-79
2023/04/16 08:46:56;;;;;;;14.60;11.60;;;;;;;10.95;95.03;100820.34;105799;1254;101115;-78
2023/04/16 08:49:46;;;;;;;14.70;12.80;;;;;;;10.95;95.27;100824.83;106372;1257;99179;-81
2023/04/16 08:52:36;;;;;;;14.40;12.70;;;;;;;10.94;95.31;100831.16;106852;1257;99064;-80
2023/04/16 08:55:29;;;;;;;15.10;11.90;;;;;;;10.94;95.25;100832.39;106578;1256;96600;-79
2023/04/16 08:58:20;;;;;;;14.70;13.10;;;;;;;10.94;94.81;100833.67;106852;1257;96504;-78
2023/04/16 09:01:08;;;;;;;12.20;11.00;;;;;;;10.97;94.87;100836.92;105545;1254;101956;-76
2023/04/16 09:03:54;;;;;;;11.60;10.10;;;;;;;10.98;94.45;100836.25;105664;1261;100029;-75
2023/04/16 09:06:41;;;;;;;13.50;11.50;;;;;;;11.00;94.68;100837.19;105624;1266;98735;-76
2023/04/16 09:09:28;;;;;;;13.00;11.50;;;;;;;11.04;94.45;100841.71;105687;1257;96616;-75
2023/04/16 09:12:14;;;;;;;12.90;10.70;;;;;;;11.07;94.35;100842.24;105559;1254;97199;-76
2023/04/16 09:15:02;;;;;;;14.10;11.20;;;;;;;11.09;93.93;100845.64;105598;1259;100976;-76
2023/04/16 09:17:47;;;;;;;11.80;10.60;;;;;;;11.11;94.05;100847.25;105780;1258;99076;-76
2023/04/16 09:39:24;;;;;;;14.30;12.90;;;;;;;11.64;92.59;100851.16;103345;1284;639992;-77
2023/04/16 09:42:11;;;;;;;12.80;11.10;;;;;;;11.86;92.18;100853.15;105534;1268;95820;-80
2023/04/16 09:44:57;;;;;;;12.00;10.00;;;;;;;11.78;91.43;100856.77;105716;1267;95884;-79
2023/04/16 09:47:45;;;;;;;12.80;11.40;;;;;;;11.71;91.28;100858.17;104998;1273;98964;-82
2023/04/16 09:50:30;;;;;;;14.40;12.60;;;;;;;11.69;91.22;100860.29;105704;1270;100351;-81
2023/04/16 09:53:31;;;;;;;12.10;10.80;;;;;;;11.72;91.69;100865.33;105723;1267;97727;-80
2023/04/16 09:56:16;;;;;;;11.50;10.30;;;;;;;11.71;91.19;100870.02;106159;1261;94628;-79
2023/04/16 09:59:02;;;;;;;10.60;9.00;;;;;;;11.67;90.57;100873.47;106413;1264;96689;-90
2023/04/16 10:01:49;;;;;;;11.20;9.60;;;;;;;11.62;90.35;100878.14;106426;1272;97831;-81
2023/04/16 10:04:48;;;;;;;10.50;8.80;;;;;;;11.64;90.80;100877.45;106369;1261;99171;-81
2023/04/16 10:07:35;;;;;;;10.60;9.00;;;;;;;11.67;90.42;100875.08;106214;1260;99091;-81
2023/04/16 10:10:21;;;;;;;10.40;9.40;;;;;;;11.67;89.98;100875.30;106028;1260;95967;-82
2023/04/16 10:13:07;;;;;;;9.90;8.90;;;;;;;11.70;90.39;100872.48;106162;1261;95897;-82
2023/04/16 10:15:56;;;;;;;10.90;9.20;;;;;;;11.75;90.73;100871.27;105549;1261;98684;-78
2023/04/16 10:18:46;;;;;;;11.20;9.70;;;;;;;11.82;90.19;100870.10;105410;1261;100011;-80
2023/04/16 10:21:32;;;;;;;9.00;8.20;;;;;;;11.86;89.67;100876.48;106248;1266;98861;-78
2023/04/16 10:24:18;;;;;;;10.60;8.60;;;;;;;11.88;88.76;100880.06;105846;1264;95799;-80
2023/04/16 10:27:03;;;;;;;10.50;9.10;;;;;;;11.90;88.82;100881.81;105615;1273;95875;-79
2023/04/16 10:29:49;;;;;;;8.90;8.00;;;;;;;11.92;88.55;100880.64;105508;1260;98678;-81
2023/04/16 10:32:36;;;;;;;9.00;8.00;;;;;;;11.95;88.22;100882.24;105684;1260;100801;-80
2023/04/16 10:35:24;;;;;;;9.00;7.80;;;;;;;11.99;88.70;100882.63;105904;1261;99960;-78
2023/04/16 10:38:26;;;;;;;10.10;9.10;;;;;;;12.05;89.08;100886.49;105322;1264;95870;-77
2023/04/16 10:41:12;;;;;;;9.50;7.80;;;;;;;12.09;88.24;100887.83;105187;1264;95978;-78
2023/04/16 10:44:08;;;;;;;9.70;8.70;;;;;;;12.07;87.31;100894.86;106913;1264;99889;-78
2023/04/16 10:46:53;;;;;;;9.60;8.60;;;;;;;12.04;86.39;100895.55;105185;1260;109404;-78
2023/04/16 10:49:40;;;;;;;8.90;8.00;;;;;;;12.05;87.56;100894.68;104942;1265;97803;-77
2023/04/16 10:52:28;;;;;;;8.80;7.90;;;;;;;12.06;87.04;100897.98;104999;1260;95902;-77
2023/04/16 10:55:16;;;;;;;9.20;8.20;;;;;;;12.06;86.69;100897.25;104988;1261;95885;-79
2023/04/16 10:58:01;;;;;;;10.90;7.90;;;;;;;12.05;86.40;100898.64;104903;1264;99402;-78
2023/04/16 11:00:51;;;;;;;8.60;7.80;;;;;;;12.06;86.69;100901.95;105048;1260;100315;-77
2023/04/16 11:03:41;;;;;;;9.10;8.20;;;;;;;12.09;86.85;100903.19;105019;1264;98982;-77
2023/04/16 11:06:28;;;;;;;11.20;10.10;;;;;;;12.12;86.98;100904.02;105107;1272;96271;-77
2023/04/16 11:09:48;;;;;;;10.20;9.20;;;;;;;12.20;87.43;100904.81;105491;1260;95948;-80
2023/04/16 11:12:36;;;;;;;9.20;8.30;;;;;;;12.26;87.47;100905.12;105558;1276;98593;-79
2023/04/16 11:15:23;;;;;;;9.20;8.10;;;;;;;12.33;87.61;100906.10;105451;1264;100340;-76
2023/04/16 11:18:09;;;;;;;9.80;8.10;;;;;;;12.35;86.72;100907.95;105283;1260;97728;-79
2023/04/16 11:20:55;;;;;;;9.80;8.60;;;;;;;12.32;86.02;100903.33;105111;1261;96030;-80
2023/04/16 11:23:52;;;;;;;10.20;9.20;;;;;;;12.29;86.12;100903.34;105268;1263;95975;-79
2023/04/16 11:26:37;;;;;;;9.20;8.30;;;;;;;12.32;86.40;100906.84;105489;1263;98642;-78
2023/04/16 11:29:23;;;;;;;8.30;7.50;;;;;;;12.32;85.71;100907.45;105293;1264;99198;-79
2023/04/16 11:32:08;;;;;;;9.40;8.50;;;;;;;12.31;85.21;100909.15;105195;1264;97722;-79
2023/04/16 11:34:54;;;;;;;10.10;9.00;;;;;;;12.32;85.36;100912.59;105197;1261;96287;-78
2023/04/16 11:37:40;;;;;;;11.10;9.80;;;;;;;12.34;85.47;100910.45;105298;1261;96733;-78
2023/04/16 11:40:30;;;;;;;9.40;8.10;;;;;;;12.38;85.85;100911.66;105075;1261;99879;-78
2023/04/16 11:43:15;;;;;;;23.40;16.90;;;;;;;12.42;85.34;100912.14;105507;1264;100304;-80
2023/04/16 11:46:05;;;;;;;10.60;9.50;;;;;;;12.46;85.30;100914.02;105716;1260;98996;-83
2023/04/16 11:48:58;;;;;;;15.20;11.70;;;;;;;12.52;85.54;100917.33;105966;1267;96012;-85
2023/04/16 11:51:46;;;;;;;12.70;10.10;;;;;;;12.59;85.92;100917.08;106248;1259;95723;-85
2023/04/16 11:54:33;;;;;;;10.30;9.10;;;;;;;12.64;85.25;100919.73;106085;1260;99938;-84
2023/04/16 11:57:27;;;;;;;10.00;9.00;;;;;;;12.66;84.68;100921.20;105848;1260;99096;-79
2023/04/16 12:00:13;;;;;;;8.10;7.40;;;;;;;12.72;84.58;100919.48;106019;1267;98166;-80
2023/04/16 12:02:59;;;;;;;9.50;8.10;;;;;;;12.77;84.68;100918.75;106131;1261;95907;-79
2023/04/16 12:05:45;;;;;;;9.60;8.60;;;;;;;12.83;83.86;100919.34;106043;1260;95667;-80
2023/04/16 12:08:30;;;;;;;9.70;8.70;;;;;;;12.85;83.89;100918.65;105461;1261;98642;-78
2023/04/16 12:11:15;;;;;;;10.30;8.60;;;;;;;12.88;83.55;100920.00;105080;1260;99063;-77
2023/04/16 12:14:09;;;;;;;9.50;8.50;;;;;;;12.93;83.48;100923.70;104989;1264;98952;-76
2023/04/16 12:16:55;;;;;;;8.60;7.80;;;;;;;12.97;83.63;100919.27;104902;1263;97256;-77
2023/04/16 12:20:04;;;;;;;8.90;8.00;;;;;;;13.00;83.13;100914.71;104973;1264;95897;-75
2023/04/16 12:22:51;;;;;;;11.60;7.90;;;;;;;13.05;83.51;100908.52;105033;1264;98663;-76
2023/04/16 12:25:37;;;;;;;8.40;7.60;;;;;;;13.10;83.47;100908.98;104997;1264;99143;-76
2023/04/16 12:28:30;;;;;;;8.80;7.90;;;;;;;13.12;83.11;100903.29;105053;1264;98946;-76
2023/04/16 12:31:16;;;;;;;9.30;7.80;;;;;;;13.16;83.29;100904.61;104983;1260;95929;-77
2023/04/16 12:34:02;;;;;;;8.50;7.70;;;;;;;13.24;83.04;100904.17;104977;1264;95806;-76
2023/04/16 12:37:01;;;;;;;7.60;6.90;;;;;;;13.26;82.12;100905.66;104996;1264;99548;-76
2023/04/16 12:39:47;;;;;;;8.40;7.50;;;;;;;13.30;81.86;100902.96;105118;1263;99831;-75
2023/04/16 12:42:34;;;;;;;9.40;8.40;;;;;;;13.38;82.63;100899.83;105053;1265;98953;-77
2023/04/16 12:45:21;;;;;;;10.90;7.90;;;;;;;13.45;82.53;100896.73;105373;1260;95979;-75
2023/04/16 12:48:07;;;;;;;8.80;7.90;;;;;;;13.51;82.12;100893.58;105049;1261;95941;-75
2023/04/16 12:50:53;;;;;;;8.90;8.10;;;;;;;13.54;81.26;100895.75;105061;1260;100006;-77
2023/04/16 12:53:39;;;;;;;8.30;7.50;;;;;;;13.50;81.54;100898.83;104946;1260;108393;-75